Time;durP1;ratioP1;P1;durP2;ratioP2;P2;SDS_P1;SDS_P2;PMS_P1;PMS_P2;Temp;Humidity;BMP_temperature;BMP_pressure;BME280_temperature;BME280_humidity;BME280_pressure;Samples;Min_cycle;Max_cycle;Signal;HPM_P1;HPM_P2
2022/12/06 00:01:33;;;;;;;23.53;15.10;;;;;;;;;;6580395;28;20200;-91
2022/12/06 00:04:45;;;;;;;24.90;14.97;;;;;;;;;;6598280;28;20179;-89
2022/12/06 00:07:55;;;;;;;23.03;14.60;;;;;;;;;;6580337;28;20168;-89
2022/12/06 00:11:07;;;;;;;24.73;14.57;;;;;;;;;;6598113;28;20215;-89
2022/12/06 00:14:17;;;;;;;25.70;16.07;;;;;;;;;;6597989;28;20172;-90
2022/12/06 00:17:27;;;;;;;27.93;16.40;;;;;;;;;;6598393;28;20538;-89
2022/12/06 00:20:38;;;;;;;19.40;13.30;;;;;;;;;;6597807;28;20643;-89
2022/12/06 00:23:49;;;;;;;26.67;15.87;;;;;;;;;;6597449;28;20222;-89
2022/12/06 00:27:00;;;;;;;24.50;15.37;;;;;;;;;;6595417;28;20208;-89
2022/12/06 00:30:10;;;;;;;22.67;14.10;;;;;;;;;;6597913;28;20168;-89
2022/12/06 00:33:20;;;;;;;23.23;14.27;;;;;;;;;;6596744;28;20216;-89
2022/12/06 00:36:31;;;;;;;23.97;14.53;;;;;;;;;;6597113;28;20180;-89
2022/12/06 00:39:43;;;;;;;25.03;14.90;;;;;;;;;;6594369;28;20220;-90
2022/12/06 00:42:53;;;;;;;25.07;14.93;;;;;;;;;;6597724;28;20232;-90
2022/12/06 00:46:06;;;;;;;28.20;17.67;;;;;;;;;;6596824;28;20160;-89
2022/12/06 00:49:16;;;;;;;24.70;15.33;;;;;;;;;;6597230;28;20179;-89
2022/12/06 00:52:26;;;;;;;23.07;13.93;;;;;;;;;;6594848;28;20172;-89
2022/12/06 00:55:37;;;;;;;24.93;14.67;;;;;;;;;;6596935;28;20177;-89
2022/12/06 00:58:47;;;;;;;24.13;14.87;;;;;;;;;;6596641;28;20196;-89
2022/12/06 01:01:57;;;;;;;21.77;13.53;;;;;;;;;;6596931;28;20291;-90
2022/12/06 01:05:08;;;;;;;28.30;15.33;;;;;;;;;;6578974;28;20266;-90
2022/12/06 01:08:18;;;;;;;26.63;16.03;;;;;;;;;;6596749;28;20641;-89
2022/12/06 01:11:29;;;;;;;22.70;15.23;;;;;;;;;;6578867;28;20227;-90
2022/12/06 01:14:39;;;;;;;25.87;16.17;;;;;;;;;;6596979;28;20180;-89
2022/12/06 01:17:49;;;;;;;26.90;15.63;;;;;;;;;;6596088;28;20615;-90
2022/12/06 01:21:04;;;;;;;26.50;16.93;;;;;;;;;;6595932;28;20294;-90
2022/12/06 01:24:14;;;;;;;26.23;16.27;;;;;;;;;;6596656;28;20200;-90
2022/12/06 01:27:24;;;;;;;24.43;15.53;;;;;;;;;;6596314;28;20164;-90
2022/12/06 01:30:38;;;;;;;26.90;16.13;;;;;;;;;;6578355;28;20176;-90
2022/12/06 01:33:48;;;;;;;26.30;15.57;;;;;;;;;;6596111;28;20259;-89
2022/12/06 01:36:58;;;;;;;29.17;17.20;;;;;;;;;;6596120;28;20179;-90
2022/12/06 01:40:09;;;;;;;26.37;15.13;;;;;;;;;;6578096;28;20697;-89
2022/12/06 01:43:28;;;;;;;24.80;16.00;;;;;;;;;;6596113;28;20583;-89
2022/12/06 01:46:41;;;;;;;19.07;12.17;;;;;;;;;;6595033;28;20188;-90
2022/12/06 01:49:54;;;;;;;26.40;16.27;;;;;;;;;;6595492;28;20168;-90
2022/12/06 01:53:07;;;;;;;23.57;14.60;;;;;;;;;;6578054;28;20160;-89
2022/12/06 01:56:18;;;;;;;19.80;12.53;;;;;;;;;;6592111;28;20179;-89
2022/12/06 01:59:29;;;;;;;25.87;15.40;;;;;;;;;;6595615;28;20176;-89
2022/12/06 02:02:39;;;;;;;24.30;14.57;;;;;;;;;;6594819;28;20655;-89
2022/12/06 02:05:50;;;;;;;25.90;16.17;;;;;;;;;;6595063;28;20179;-89
2022/12/06 02:09:02;;;;;;;23.43;14.40;;;;;;;;;;6577435;28;20173;-89
2022/12/06 02:12:14;;;;;;;24.20;15.47;;;;;;;;;;6596013;28;20643;-88
2022/12/06 02:15:29;;;;;;;25.33;15.53;;;;;;;;;;6596466;28;20516;-88
2022/12/06 02:18:48;;;;;;;23.10;14.73;;;;;;;;;;6596846;28;20165;-89
2022/12/06 02:21:59;;;;;;;35.03;18.90;;;;;;;;;;6595895;28;20197;-89
2022/12/06 02:25:21;;;;;;;25.70;15.83;;;;;;;;;;6596757;28;20646;-89
2022/12/06 02:28:45;;;;;;;22.53;14.13;;;;;;;;;;6596629;28;20258;-89
2022/12/06 02:32:16;;;;;;;26.23;15.67;;;;;;;;;;6596360;28;20215;-89
2022/12/06 02:35:30;;;;;;;26.50;15.70;;;;;;;;;;6596144;28;20583;-89
2022/12/06 02:38:46;;;;;;;27.30;16.90;;;;;;;;;;6596461;28;20204;-89
2022/12/06 02:42:02;;;;;;;24.13;13.60;;;;;;;;;;6595402;28;20196;-89
2022/12/06 02:45:15;;;;;;;25.33;15.03;;;;;;;;;;6578089;28;20172;-89
2022/12/06 02:48:26;;;;;;;26.50;15.93;;;;;;;;;;6578740;28;20264;-89
2022/12/06 02:51:37;;;;;;;24.33;15.10;;;;;;;;;;6595322;28;20169;-89
2022/12/06 02:54:48;;;;;;;24.40;15.00;;;;;;;;;;6596360;28;20488;-89
2022/12/06 02:57:58;;;;;;;27.27;15.37;;;;;;;;;;6581497;28;20685;-88
2022/12/06 03:01:13;;;;;;;24.13;14.07;;;;;;;;;;6582684;28;20226;-89
2022/12/06 03:04:33;;;;;;;26.07;15.80;;;;;;;;;;6583585;28;20615;-88
2022/12/06 03:07:44;;;;;;;31.00;16.43;;;;;;;;;;6600779;28;20154;-88
2022/12/06 03:10:56;;;;;;;25.37;15.43;;;;;;;;;;6583303;28;20176;-89
2022/12/06 03:14:09;;;;;;;27.73;16.03;;;;;;;;;;6600257;28;20169;-90
2022/12/06 03:17:37;;;;;;;28.33;16.23;;;;;;;;;;6600161;28;20211;-89
2022/12/06 03:20:48;;;;;;;31.27;17.17;;;;;;;;;;6600494;28;20283;-89
2022/12/06 03:24:03;;;;;;;29.30;17.70;;;;;;;;;;6600055;28;20168;-93
2022/12/06 03:27:16;;;;;;;30.87;17.43;;;;;;;;;;6600481;28;20157;-89
2022/12/06 03:30:27;;;;;;;23.57;15.50;;;;;;;;;;6599841;28;20176;-89
2022/12/06 03:33:41;;;;;;;25.10;15.10;;;;;;;;;;6599761;28;20677;-90
2022/12/06 03:36:52;;;;;;;24.63;16.13;;;;;;;;;;6599682;28;20169;-89
2022/12/06 03:40:15;;;;;;;28.63;16.83;;;;;;;;;;6581715;28;20539;-89
2022/12/06 03:43:25;;;;;;;26.53;15.63;;;;;;;;;;6599555;28;20200;-89
2022/12/06 03:46:37;;;;;;;23.47;14.90;;;;;;;;;;6581775;28;20203;-89
2022/12/06 03:49:51;;;;;;;24.60;15.03;;;;;;;;;;6600104;28;20176;-89
2022/12/06 03:53:02;;;;;;;26.77;14.93;;;;;;;;;;6598970;28;20183;-89
2022/12/06 03:56:13;;;;;;;26.03;15.27;;;;;;;;;;6599268;28;20176;-89
2022/12/06 03:59:23;;;;;;;20.70;14.07;;;;;;;;;;6581670;28;20176;-89
2022/12/06 04:02:33;;;;;;;31.10;15.83;;;;;;;;;;6581972;28;20204;-89
2022/12/06 04:05:44;;;;;;;21.93;13.53;;;;;;;;;;6599336;28;20229;-90
2022/12/06 04:09:51;;;;;;;26.20;15.30;;;;;;;;;;6598802;28;20168;-89
2022/12/06 04:15:54;;;;;;;26.57;15.77;;;;;;;;;;6598861;28;20276;-89
2022/12/06 04:19:05;;;;;;;19.60;12.10;;;;;;;;;;6599037;28;20627;-89
2022/12/06 04:25:44;;;;;;;28.93;17.37;;;;;;;;;;6598679;28;20171;-89
2022/12/06 04:39:24;;;;;;;30.07;18.57;;;;;;;;;;6598544;28;20220;-89
2022/12/06 04:46:03;;;;;;;29.70;17.20;;;;;;;;;;6598093;28;20203;-89
2022/12/06 04:49:13;;;;;;;28.50;16.03;;;;;;;;;;6597891;28;20264;-89
2022/12/06 04:52:23;;;;;;;25.60;16.03;;;;;;;;;;6598203;28;20255;-89
2022/12/06 04:55:34;;;;;;;27.53;15.97;;;;;;;;;;6598115;28;20226;-89
2022/12/06 04:58:44;;;;;;;29.03;17.70;;;;;;;;;;6597304;28;20164;-89
2022/12/06 05:01:55;;;;;;;48.73;25.20;;;;;;;;;;6597178;28;20199;-89
2022/12/06 05:05:06;;;;;;;45.47;24.73;;;;;;;;;;6597446;28;20199;-89
2022/12/06 05:08:16;;;;;;;416.43;131.27;;;;;;;;;;6579731;28;20176;-89
2022/12/06 05:11:26;;;;;;;147.17;60.10;;;;;;;;;;6579992;28;20579;-89
2022/12/06 05:14:36;;;;;;;40.13;24.60;;;;;;;;;;6597599;28;20251;-89
2022/12/06 05:17:47;;;;;;;73.93;38.47;;;;;;;;;;6579806;28;20607;-89
2022/12/06 05:21:04;;;;;;;31.00;18.90;;;;;;;;;;6596440;28;20227;-89
2022/12/06 05:24:15;;;;;;;34.33;20.23;;;;;;;;;;6596971;28;20177;-89
2022/12/06 05:27:25;;;;;;;35.53;18.67;;;;;;;;;;6598656;28;20194;-89
2022/12/06 05:30:35;;;;;;;39.20;26.27;;;;;;;;;;6596933;28;20176;-89
2022/12/06 05:33:46;;;;;;;37.03;23.37;;;;;;;;;;6578547;28;20239;-89
2022/12/06 05:36:56;;;;;;;28.47;16.57;;;;;;;;;;6579036;28;20627;-89
2022/12/06 05:40:07;;;;;;;31.57;17.03;;;;;;;;;;6596117;28;20192;-89
2022/12/06 05:43:17;;;;;;;27.93;16.97;;;;;;;;;;6596224;28;20183;-89
2022/12/06 05:46:28;;;;;;;27.20;17.13;;;;;;;;;;6579158;28;20241;-89
2022/12/06 05:49:38;;;;;;;36.77;18.97;;;;;;;;;;6596495;28;20168;-89
2022/12/06 05:52:52;;;;;;;30.97;17.93;;;;;;;;;;6597135;28;20200;-89
2022/12/06 05:56:03;;;;;;;34.00;18.03;;;;;;;;;;6595917;28;20165;-89
2022/12/06 05:59:14;;;;;;;41.90;21.73;;;;;;;;;;6578583;28;20629;-89
2022/12/06 06:02:24;;;;;;;45.93;22.87;;;;;;;;;;6579457;28;20200;-89
2022/12/06 06:05:34;;;;;;;31.03;16.53;;;;;;;;;;6596000;28;20165;-89
2022/12/06 06:08:45;;;;;;;39.23;20.60;;;;;;;;;;6596449;28;20164;-89
2022/12/06 06:11:55;;;;;;;37.90;21.00;;;;;;;;;;6595718;28;20168;-89
2022/12/06 06:15:06;;;;;;;35.33;19.83;;;;;;;;;;6596029;28;20630;-89
2022/12/06 06:18:17;;;;;;;28.10;19.67;;;;;;;;;;6596746;28;20251;-89
2022/12/06 06:21:27;;;;;;;33.33;18.87;;;;;;;;;;6596400;28;20650;-89
2022/12/06 06:24:39;;;;;;;34.60;20.10;;;;;;;;;;6578248;28;20184;-89
2022/12/06 06:27:49;;;;;;;45.37;30.10;;;;;;;;;;6596020;28;20169;-89
2022/12/06 06:31:03;;;;;;;31.63;19.07;;;;;;;;;;6596470;28;20183;-89
2022/12/06 06:34:14;;;;;;;38.83;21.20;;;;;;;;;;6583257;28;20269;-89
2022/12/06 06:37:24;;;;;;;66.30;32.73;;;;;;;;;;6601081;28;20651;-89
2022/12/06 06:40:35;;;;;;;70.73;39.43;;;;;;;;;;6600789;28;20203;-89
2022/12/06 06:43:45;;;;;;;50.63;29.90;;;;;;;;;;6599634;28;20174;-89
2022/12/06 06:46:55;;;;;;;69.70;39.60;;;;;;;;;;6581952;28;20188;-89
2022/12/06 06:50:06;;;;;;;36.43;22.40;;;;;;;;;;6582330;28;20264;-89
2022/12/06 06:53:16;;;;;;;28.97;17.13;;;;;;;;;;6599398;28;20169;-89
2022/12/06 06:56:27;;;;;;;36.70;21.60;;;;;;;;;;6599892;28;20173;-89
2022/12/06 06:59:37;;;;;;;35.83;20.40;;;;;;;;;;6599581;28;20169;-89
2022/12/06 07:02:47;;;;;;;37.00;21.43;;;;;;;;;;6599987;28;20188;-89
2022/12/06 07:06:07;;;;;;;43.17;22.83;;;;;;;;;;6581903;28;20195;-89
2022/12/06 07:09:17;;;;;;;45.30;21.13;;;;;;;;;;6581183;28;20231;-90
2022/12/06 07:12:27;;;;;;;37.03;22.40;;;;;;;;;;6580600;28;20172;-90
2022/12/06 07:15:38;;;;;;;36.20;21.13;;;;;;;;;;6580897;28;20169;-90
2022/12/06 07:18:48;;;;;;;30.93;18.47;;;;;;;;;;6598098;28;20165;-90
2022/12/06 07:21:58;;;;;;;36.73;21.77;;;;;;;;;;6598034;28;20204;-90
2022/12/06 07:25:09;;;;;;;32.40;19.20;;;;;;;;;;6580477;28;20203;-90
2022/12/06 07:28:19;;;;;;;32.00;19.23;;;;;;;;;;6598665;28;20165;-90
2022/12/06 07:31:29;;;;;;;32.80;19.77;;;;;;;;;;6598559;28;20176;-90
2022/12/06 07:34:39;;;;;;;33.50;19.97;;;;;;;;;;6579906;28;20258;-90
2022/12/06 07:37:50;;;;;;;37.57;25.17;;;;;;;;;;6597458;28;20192;-90
2022/12/06 07:41:01;;;;;;;41.17;25.80;;;;;;;;;;6597385;28;20207;-90
2022/12/06 07:47:42;;;;;;;33.43;18.87;;;;;;;;;;6597272;28;20171;-89
2022/12/06 07:50:53;;;;;;;36.40;20.53;;;;;;;;;;6579118;28;20598;-89
2022/12/06 07:54:03;;;;;;;33.80;20.63;;;;;;;;;;6597643;28;20173;-89
2022/12/06 07:57:13;;;;;;;35.93;21.23;;;;;;;;;;6597547;28;20220;-90
2022/12/06 08:00:25;;;;;;;46.53;23.37;;;;;;;;;;6596658;28;20243;-89
2022/12/06 08:03:35;;;;;;;34.30;20.10;;;;;;;;;;6578887;28;20180;-89
2022/12/06 08:06:45;;;;;;;34.83;20.50;;;;;;;;;;6594415;28;20176;-89
2022/12/06 08:09:55;;;;;;;40.33;23.97;;;;;;;;;;6596853;28;20172;-89
2022/12/06 08:13:06;;;;;;;35.33;20.87;;;;;;;;;;6596314;28;20165;-89
2022/12/06 08:16:16;;;;;;;34.73;20.87;;;;;;;;;;6596034;28;20173;-90
2022/12/06 08:19:26;;;;;;;42.57;22.83;;;;;;;;;;6596930;28;20482;-89
2022/12/06 08:22:37;;;;;;;31.00;20.90;;;;;;;;;;6596020;28;20689;-89
2022/12/06 08:25:55;;;;;;;36.00;22.60;;;;;;;;;;6596332;28;20187;-89
2022/12/06 08:29:05;;;;;;;31.30;19.60;;;;;;;;;;6596163;28;20176;-89
2022/12/06 08:32:15;;;;;;;38.70;23.57;;;;;;;;;;6596718;28;20222;-89
2022/12/06 08:35:26;;;;;;;30.80;19.73;;;;;;;;;;6578339;28;20228;-89
2022/12/06 08:38:36;;;;;;;41.73;24.23;;;;;;;;;;6595862;28;20206;-89
2022/12/06 08:41:57;;;;;;;49.33;26.70;;;;;;;;;;6596052;28;20323;-89
2022/12/06 08:45:07;;;;;;;37.13;20.50;;;;;;;;;;6575791;28;20183;-89
2022/12/06 08:48:17;;;;;;;178.60;31.80;;;;;;;;;;6578185;28;20176;-89
2022/12/06 08:51:28;;;;;;;31.03;18.67;;;;;;;;;;6595852;28;20198;-88
2022/12/06 08:54:39;;;;;;;32.53;20.57;;;;;;;;;;6577126;28;20165;-90
2022/12/06 08:57:49;;;;;;;32.57;18.63;;;;;;;;;;6595805;28;20286;-89
2022/12/06 09:00:59;;;;;;;127.20;26.87;;;;;;;;;;6595217;28;20204;-89
2022/12/06 09:04:10;;;;;;;28.43;17.93;;;;;;;;;;6595831;28;20180;-88
2022/12/06 09:07:22;;;;;;;42.23;25.40;;;;;;;;;;6577586;28;20173;-90
2022/12/06 09:10:32;;;;;;;41.00;24.23;;;;;;;;;;6577633;28;20176;-89
2022/12/06 09:13:43;;;;;;;52.03;30.33;;;;;;;;;;6595728;28;20172;-90
2022/12/06 09:16:53;;;;;;;46.77;27.17;;;;;;;;;;6577364;28;20179;-90
2022/12/06 09:20:04;;;;;;;42.60;25.07;;;;;;;;;;6595855;28;20165;-89
2022/12/06 09:23:14;;;;;;;34.97;21.27;;;;;;;;;;6594683;28;20582;-90
2022/12/06 09:26:26;;;;;;;36.10;21.83;;;;;;;;;;6577816;28;20203;-89
2022/12/06 09:29:36;;;;;;;34.73;22.33;;;;;;;;;;6594857;28;20259;-89
2022/12/06 09:32:47;;;;;;;43.50;27.80;;;;;;;;;;6594257;28;20733;-90
2022/12/06 09:35:58;;;;;;;43.60;25.70;;;;;;;;;;6577421;28;20207;-89
2022/12/06 09:39:12;;;;;;;34.37;21.50;;;;;;;;;;6594475;28;20196;-89
2022/12/06 09:42:28;;;;;;;34.87;21.80;;;;;;;;;;6594961;28;20219;-89
2022/12/06 09:45:55;;;;;;;42.97;24.70;;;;;;;;;;6594613;28;20173;-89
2022/12/06 09:49:11;;;;;;;42.30;25.23;;;;;;;;;;6593902;28;20168;-89
2022/12/06 09:52:24;;;;;;;44.50;26.27;;;;;;;;;;6594853;28;20180;-88
2022/12/06 09:55:53;;;;;;;40.00;25.67;;;;;;;;;;6591837;28;20199;-90
2022/12/06 09:59:12;;;;;;;40.57;22.67;;;;;;;;;;6593481;28;20233;-89
2022/12/06 10:02:36;;;;;;;48.73;25.33;;;;;;;;;;6594355;28;20216;-90
2022/12/06 10:05:59;;;;;;;42.83;24.33;;;;;;;;;;6592017;28;20607;-89
2022/12/06 10:09:29;;;;;;;39.03;21.87;;;;;;;;;;6576613;28;20180;-89
2022/12/06 10:12:59;;;;;;;45.33;26.17;;;;;;;;;;6593085;28;20168;-88
2022/12/06 10:16:28;;;;;;;33.73;21.50;;;;;;;;;;6594079;28;20172;-89
2022/12/06 10:19:41;;;;;;;32.10;19.67;;;;;;;;;;6574709;28;20185;-89
2022/12/06 10:23:10;;;;;;;40.80;22.10;;;;;;;;;;6612233;28;20212;-88
2022/12/06 10:26:27;;;;;;;38.23;22.17;;;;;;;;;;6592075;28;20184;-89
2022/12/06 10:29:37;;;;;;;50.37;24.73;;;;;;;;;;6592253;28;20495;-89
2022/12/06 10:33:02;;;;;;;37.53;21.67;;;;;;;;;;6594256;28;20220;-89
2022/12/06 10:36:15;;;;;;;36.30;19.13;;;;;;;;;;6576325;28;20180;-89
2022/12/06 10:39:30;;;;;;;31.17;18.53;;;;;;;;;;6593458;28;20192;-89
2022/12/06 10:42:59;;;;;;;40.00;22.27;;;;;;;;;;6592183;28;20554;-88
2022/12/06 10:49:54;;;;;;;34.57;20.63;;;;;;;;;;6589583;28;20231;-89
2022/12/06 10:53:15;;;;;;;41.03;23.53;;;;;;;;;;6574431;28;20597;-89
2022/12/06 10:56:28;;;;;;;36.27;22.27;;;;;;;;;;6593968;28;20172;-89
2022/12/06 10:59:42;;;;;;;40.50;23.63;;;;;;;;;;6593285;28;20173;-89
2022/12/06 11:02:59;;;;;;;39.87;22.20;;;;;;;;;;6593465;28;20215;-88
2022/12/06 11:06:30;;;;;;;35.17;21.17;;;;;;;;;;6593699;28;20169;-89
2022/12/06 11:09:40;;;;;;;36.87;21.63;;;;;;;;;;6581509;28;20193;-89
2022/12/06 11:12:57;;;;;;;40.07;23.47;;;;;;;;;;6575421;28;20181;-89
2022/12/06 11:16:33;;;;;;;34.03;19.67;;;;;;;;;;6593952;28;20169;-89
2022/12/06 11:19:56;;;;;;;36.07;20.63;;;;;;;;;;6593992;28;20223;-89
2022/12/06 11:23:09;;;;;;;35.57;20.23;;;;;;;;;;6596646;28;20211;-89
2022/12/06 11:26:22;;;;;;;31.67;19.40;;;;;;;;;;6595048;28;20179;-88
2022/12/06 11:29:32;;;;;;;36.60;20.60;;;;;;;;;;6597788;28;20200;-89
2022/12/06 11:32:44;;;;;;;37.57;22.20;;;;;;;;;;6597649;28;20199;-89
2022/12/06 11:35:55;;;;;;;44.63;24.80;;;;;;;;;;6579468;28;20174;-88
2022/12/06 11:39:05;;;;;;;41.57;24.67;;;;;;;;;;6597498;28;20203;-89
2022/12/06 11:42:17;;;;;;;41.17;24.27;;;;;;;;;;6597909;28;20272;-90
2022/12/06 11:45:31;;;;;;;42.33;23.87;;;;;;;;;;6598801;28;20168;-89
2022/12/06 11:48:42;;;;;;;48.07;30.23;;;;;;;;;;6594868;28;20227;-88
2022/12/06 11:51:53;;;;;;;99.77;54.43;;;;;;;;;;6597803;28;20514;-88
2022/12/06 11:55:14;;;;;;;74.57;45.40;;;;;;;;;;6596569;28;20180;-89
2022/12/06 11:58:39;;;;;;;44.43;28.73;;;;;;;;;;6570577;28;20267;-88
2022/12/06 12:01:50;;;;;;;54.70;34.57;;;;;;;;;;6595252;28;20201;-89
2022/12/06 12:05:13;;;;;;;37.13;23.33;;;;;;;;;;6596845;28;20204;-89
2022/12/06 12:08:23;;;;;;;46.97;29.63;;;;;;;;;;6580032;28;20627;-89
2022/12/06 12:11:36;;;;;;;42.33;25.33;;;;;;;;;;6598265;28;20173;-89
2022/12/06 12:14:53;;;;;;;42.47;26.83;;;;;;;;;;6579448;28;20626;-88
2022/12/06 12:18:04;;;;;;;43.53;27.57;;;;;;;;;;6594397;28;20279;-89
2022/12/06 12:21:15;;;;;;;50.03;33.43;;;;;;;;;;6596422;28;20244;-89
2022/12/06 12:24:40;;;;;;;89.17;56.03;;;;;;;;;;6596627;28;20188;-89
2022/12/06 12:27:52;;;;;;;60.00;37.63;;;;;;;;;;6594913;28;20184;-90
2022/12/06 12:31:19;;;;;;;47.30;28.13;;;;;;;;;;6595402;28;20526;-90
2022/12/06 12:34:29;;;;;;;43.10;27.37;;;;;;;;;;6578999;28;20260;-89
2022/12/06 12:37:40;;;;;;;44.67;26.63;;;;;;;;;;6580049;28;20206;-89
2022/12/06 12:40:54;;;;;;;46.00;29.47;;;;;;;;;;6579701;28;20234;-88
2022/12/06 12:44:12;;;;;;;52.20;30.23;;;;;;;;;;6596759;28;20172;-90
2022/12/06 12:47:23;;;;;;;55.60;28.73;;;;;;;;;;6595883;28;20180;-89
2022/12/06 12:50:33;;;;;;;48.97;29.63;;;;;;;;;;6596802;28;20223;-89
2022/12/06 12:53:48;;;;;;;38.40;22.63;;;;;;;;;;6596297;28;20323;-88
2022/12/06 12:56:59;;;;;;;36.20;21.60;;;;;;;;;;6579915;28;20627;-90
2022/12/06 13:00:13;;;;;;;37.97;22.37;;;;;;;;;;6597305;28;20171;-89
2022/12/06 13:03:25;;;;;;;27.53;17.37;;;;;;;;;;6578720;28;20204;-89
2022/12/06 13:06:39;;;;;;;31.37;20.33;;;;;;;;;;6594830;28;20165;-89
2022/12/06 13:09:49;;;;;;;33.57;21.70;;;;;;;;;;6568655;28;20749;-89
2022/12/06 13:13:01;;;;;;;39.03;21.43;;;;;;;;;;6601408;28;20173;-89
2022/12/06 13:16:13;;;;;;;29.23;18.33;;;;;;;;;;6600871;28;20522;-88
2022/12/06 13:19:28;;;;;;;40.20;23.73;;;;;;;;;;6595141;28;20210;-88
2022/12/06 13:22:44;;;;;;;59.77;31.77;;;;;;;;;;6577846;28;20207;-89
2022/12/06 13:26:00;;;;;;;55.77;32.17;;;;;;;;;;6595959;28;20200;-89
2022/12/06 13:29:16;;;;;;;65.40;35.33;;;;;;;;;;6596466;28;20267;-89
2022/12/06 13:32:37;;;;;;;53.90;32.67;;;;;;;;;;6596278;28;20557;-89
2022/12/06 13:35:54;;;;;;;62.47;37.63;;;;;;;;;;6595523;28;20220;-89
2022/12/06 13:39:24;;;;;;;66.27;34.63;;;;;;;;;;6575013;28;20224;-90
2022/12/06 13:42:34;;;;;;;54.97;33.30;;;;;;;;;;6593763;28;20207;-89
2022/12/06 13:45:48;;;;;;;50.63;28.60;;;;;;;;;;6595325;28;20196;-90
2022/12/06 13:49:00;;;;;;;48.33;28.20;;;;;;;;;;6595203;28;20195;-90
2022/12/06 13:52:30;;;;;;;42.37;25.17;;;;;;;;;;6577286;28;20628;-90
2022/12/06 13:55:40;;;;;;;38.00;22.50;;;;;;;;;;6594525;28;20171;-89
2022/12/06 13:58:52;;;;;;;37.77;22.27;;;;;;;;;;6594695;28;20623;-89
2022/12/06 14:02:22;;;;;;;48.60;29.20;;;;;;;;;;6594011;28;20216;-89
2022/12/06 14:05:51;;;;;;;74.33;37.67;;;;;;;;;;6592402;28;20176;-90
2022/12/06 14:09:02;;;;;;;56.00;32.03;;;;;;;;;;6593976;28;20168;-89
2022/12/06 14:12:16;;;;;;;75.33;39.43;;;;;;;;;;6594218;28;20176;-89
2022/12/06 14:15:27;;;;;;;56.23;32.60;;;;;;;;;;6592253;28;20528;-89
2022/12/06 14:18:39;;;;;;;107.40;47.90;;;;;;;;;;6593969;28;20172;-90
2022/12/06 14:21:52;;;;;;;48.77;30.37;;;;;;;;;;6576550;28;20259;-90
2022/12/06 14:25:04;;;;;;;57.57;30.83;;;;;;;;;;6593863;28;20176;-90
2022/12/06 14:28:14;;;;;;;45.57;26.40;;;;;;;;;;6594325;28;20509;-91
2022/12/06 14:31:24;;;;;;;55.83;30.43;;;;;;;;;;6594236;28;20168;-90
2022/12/06 14:34:35;;;;;;;53.20;32.37;;;;;;;;;;6593488;28;20307;-90
2022/12/06 14:37:51;;;;;;;57.90;35.50;;;;;;;;;;6593807;28;20200;-90
2022/12/06 14:44:31;;;;;;;66.37;41.10;;;;;;;;;;6595162;28;20688;-90
2022/12/06 14:47:43;;;;;;;52.27;34.07;;;;;;;;;;6576831;28;20172;-90
2022/12/06 14:50:56;;;;;;;68.50;40.60;;;;;;;;;;6576890;28;20191;-90
2022/12/06 14:54:16;;;;;;;62.13;34.60;;;;;;;;;;6599013;28;20287;-90
2022/12/06 14:57:28;;;;;;;61.27;36.77;;;;;;;;;;6582953;28;20172;-90
2022/12/06 15:00:47;;;;;;;60.73;36.33;;;;;;;;;;6600640;28;20169;-90
2022/12/06 15:03:59;;;;;;;58.17;34.23;;;;;;;;;;6582887;28;20184;-92
2022/12/06 15:07:27;;;;;;;55.10;31.67;;;;;;;;;;6600873;28;20256;-90
2022/12/06 15:10:38;;;;;;;58.23;36.13;;;;;;;;;;6600214;28;20526;-90
2022/12/06 15:14:08;;;;;;;59.73;34.97;;;;;;;;;;6600656;28;20175;-90
2022/12/06 15:17:20;;;;;;;66.57;39.13;;;;;;;;;;6600171;28;20647;-90
2022/12/06 15:20:30;;;;;;;55.77;34.40;;;;;;;;;;6599283;28;20184;-90
2022/12/06 15:23:48;;;;;;;61.73;39.63;;;;;;;;;;6599723;28;20168;-90
2022/12/06 15:26:58;;;;;;;74.23;45.33;;;;;;;;;;6582194;28;20211;-90
2022/12/06 15:30:11;;;;;;;63.97;40.80;;;;;;;;;;6599436;28;20525;-89
2022/12/06 15:33:22;;;;;;;78.27;49.23;;;;;;;;;;6598278;28;20553;-93
2022/12/06 15:36:34;;;;;;;71.73;46.40;;;;;;;;;;6598906;28;20172;-91
2022/12/06 15:39:44;;;;;;;64.67;41.40;;;;;;;;;;6598933;28;20239;-91
2022/12/06 15:42:55;;;;;;;87.40;47.90;;;;;;;;;;6581035;28;20200;-91
2022/12/06 15:46:05;;;;;;;82.00;47.00;;;;;;;;;;6599353;28;20176;-91
2022/12/06 15:49:17;;;;;;;61.43;36.47;;;;;;;;;;6599319;28;20200;-91
2022/12/06 15:52:27;;;;;;;56.60;36.03;;;;;;;;;;6581070;28;20215;-90
2022/12/06 15:55:38;;;;;;;57.17;35.53;;;;;;;;;;6598158;28;20165;-90
2022/12/06 15:58:49;;;;;;;60.40;33.90;;;;;;;;;;6598710;28;20204;-90
2022/12/06 16:02:00;;;;;;;49.27;30.50;;;;;;;;;;6598964;28;20200;-90
2022/12/06 16:05:15;;;;;;;45.87;27.63;;;;;;;;;;6579837;28;20187;-91
2022/12/06 16:08:25;;;;;;;42.03;26.97;;;;;;;;;;6598582;28;20259;-91
2022/12/06 16:11:35;;;;;;;46.50;27.23;;;;;;;;;;6598124;28;20164;-89
2022/12/06 16:14:46;;;;;;;43.57;27.53;;;;;;;;;;6580589;28;20615;-91
2022/12/06 16:17:56;;;;;;;46.13;27.10;;;;;;;;;;6597926;28;20692;-89
2022/12/06 16:21:06;;;;;;;43.60;27.90;;;;;;;;;;6579574;28;20244;-90
2022/12/06 16:24:16;;;;;;;55.50;33.73;;;;;;;;;;6598257;28;20909;-90
2022/12/06 16:27:27;;;;;;;56.77;35.13;;;;;;;;;;6599004;28;20183;-90
2022/12/06 16:30:37;;;;;;;51.03;32.00;;;;;;;;;;6598900;28;20172;-90
2022/12/06 16:33:48;;;;;;;50.20;32.40;;;;;;;;;;6597908;28;20229;-90
2022/12/06 16:36:59;;;;;;;62.53;39.17;;;;;;;;;;6597792;28;20204;-91
2022/12/06 16:40:17;;;;;;;52.60;30.43;;;;;;;;;;6597471;28;20530;-90
2022/12/06 16:43:27;;;;;;;67.40;41.50;;;;;;;;;;6597910;28;20238;-90
2022/12/06 16:46:38;;;;;;;72.77;42.20;;;;;;;;;;6579937;28;20179;-90
2022/12/06 16:49:48;;;;;;;81.43;44.97;;;;;;;;;;6597560;28;20169;-91
2022/12/06 16:52:58;;;;;;;59.93;33.97;;;;;;;;;;6596711;28;20212;-90
2022/12/06 16:56:09;;;;;;;61.57;33.27;;;;;;;;;;6580007;28;20180;-91
2022/12/06 16:59:19;;;;;;;115.37;52.33;;;;;;;;;;6596446;28;20268;-90
2022/12/06 17:02:30;;;;;;;81.27;42.50;;;;;;;;;;6596651;28;20610;-91
2022/12/06 17:05:41;;;;;;;257.00;83.03;;;;;;;;;;6579243;28;20645;-90
2022/12/06 17:08:52;;;;;;;191.50;71.70;;;;;;;;;;6597799;28;20176;-90
2022/12/06 17:12:05;;;;;;;72.17;43.03;;;;;;;;;;6597106;28;20180;-90
2022/12/06 17:15:17;;;;;;;87.20;47.60;;;;;;;;;;6596081;28;20177;-90
2022/12/06 17:18:27;;;;;;;86.63;47.30;;;;;;;;;;6578673;28;20596;-90
2022/12/06 17:21:38;;;;;;;71.90;39.57;;;;;;;;;;6597586;28;20203;-90
2022/12/06 17:24:48;;;;;;;67.10;34.77;;;;;;;;;;6578529;28;20188;-91
2022/12/06 17:27:58;;;;;;;66.37;35.63;;;;;;;;;;6595756;28;20547;-91
2022/12/06 17:31:09;;;;;;;59.23;35.63;;;;;;;;;;6596005;28;20267;-91
2022/12/06 17:34:20;;;;;;;70.87;39.50;;;;;;;;;;6569692;28;20279;-91
2022/12/06 17:37:31;;;;;;;68.70;37.73;;;;;;;;;;6577977;28;20646;-91
2022/12/06 17:40:41;;;;;;;68.47;36.43;;;;;;;;;;6595625;28;20176;-90
2022/12/06 17:43:51;;;;;;;64.37;35.80;;;;;;;;;;6577510;28;20169;-91
2022/12/06 17:47:01;;;;;;;58.83;34.27;;;;;;;;;;6577757;28;20179;-90
2022/12/06 17:50:12;;;;;;;60.00;33.43;;;;;;;;;;6595599;28;20490;-90
2022/12/06 17:53:22;;;;;;;52.57;30.57;;;;;;;;;;6596175;28;20181;-90
2022/12/06 17:56:34;;;;;;;58.00;32.47;;;;;;;;;;6594949;28;20176;-90
2022/12/06 17:59:45;;;;;;;60.47;34.17;;;;;;;;;;6595348;28;20172;-90
2022/12/06 18:02:56;;;;;;;61.63;34.63;;;;;;;;;;6577369;28;20311;-90
2022/12/06 18:06:06;;;;;;;62.13;35.10;;;;;;;;;;6595066;28;20180;-90
2022/12/06 18:09:16;;;;;;;69.53;37.33;;;;;;;;;;6595807;28;20642;-90
2022/12/06 18:12:27;;;;;;;62.33;36.13;;;;;;;;;;6596293;28;20267;-89
2022/12/06 18:15:37;;;;;;;77.93;41.43;;;;;;;;;;6596088;28;20219;-90
2022/12/06 18:18:48;;;;;;;90.30;46.43;;;;;;;;;;6578119;28;20178;-90
2022/12/06 18:21:58;;;;;;;72.53;40.67;;;;;;;;;;6595862;28;20199;-90
2022/12/06 18:25:09;;;;;;;66.00;38.20;;;;;;;;;;6578208;28;20319;-90
2022/12/06 18:28:19;;;;;;;60.57;34.93;;;;;;;;;;6600860;28;20661;-90
2022/12/06 18:31:30;;;;;;;44.47;26.40;;;;;;;;;;6601044;28;20180;-90
2022/12/06 18:34:40;;;;;;;38.13;23.77;;;;;;;;;;6602085;28;20314;-90
2022/12/06 18:37:51;;;;;;;35.83;22.17;;;;;;;;;;6601275;28;20188;-90
2022/12/06 18:41:01;;;;;;;43.70;27.03;;;;;;;;;;6583339;28;20225;-90
2022/12/06 18:44:12;;;;;;;34.37;20.70;;;;;;;;;;6583326;28;20191;-90
2022/12/06 18:47:22;;;;;;;36.60;21.77;;;;;;;;;;6599705;28;20173;-91
2022/12/06 18:50:33;;;;;;;45.93;30.10;;;;;;;;;;6599771;28;20169;-90
2022/12/06 18:53:44;;;;;;;38.80;21.43;;;;;;;;;;6600658;28;20646;-90
2022/12/06 18:56:55;;;;;;;34.43;21.40;;;;;;;;;;6600860;28;20196;-90
2022/12/06 19:00:06;;;;;;;30.13;20.90;;;;;;;;;;6601095;28;20681;-91
2022/12/06 19:03:16;;;;;;;37.10;21.87;;;;;;;;;;6582692;28;20204;-91
2022/12/06 19:06:28;;;;;;;29.77;19.63;;;;;;;;;;6600253;28;20177;-90
2022/12/06 19:09:38;;;;;;;36.90;22.90;;;;;;;;;;6600555;28;20209;-90
2022/12/06 19:12:48;;;;;;;34.97;22.37;;;;;;;;;;6600737;28;20693;-90